Time,TemperatureF,DewpointF,PressureIn,WindDirection,WindDirectionDegrees,WindSpeedMPH,WindSpeedGustMPH,Humidity,HourlyPrecipIn,Conditions,Clouds,dailyrainin,SoftwareType,DateUTC
2013-04-28 00:02:00,72.1,68.4,30.05,SSW,209,2.0,7.0,88,0.00,,,0.00,meteohub,2013-04-28 05:02:00,
2013-04-28 00:07:00,72.1,68.4,30.05,SSW,198,3.0,5.0,88,0.00,,,0.00,meteohub,2013-04-28 05:07:00,
2013-04-28 00:12:00,72.0,68.2,30.04,South,173,3.0,5.0,88,0.00,,,0.00,meteohub,2013-04-28 05:12:00,
2013-04-28 00:17:00,72.0,68.5,30.04,South,191,0.0,5.0,89,0.00,,,0.00,meteohub,2013-04-28 05:17:00,
2013-04-28 00:22:00,72.0,68.5,30.04,South,180,2.0,5.0,89,0.00,,,0.00,meteohub,2013-04-28 05:22:00,
2013-04-28 00:27:00,72.0,68.5,30.04,South,180,0.0,5.0,89,0.00,,,0.00,meteohub,2013-04-28 05:27:00,
2013-04-28 00:32:00,72.0,68.5,30.04,South,180,1.0,5.0,89,0.00,,,0.00,meteohub,2013-04-28 05:32:00,
2013-04-28 00:37:00,72.0,68.9,30.04,South,169,1.0,5.0,90,0.00,,,0.00,meteohub,2013-04-28 05:37:00,
2013-04-28 00:42:00,71.8,68.7,30.03,South,169,3.0,5.0,90,0.00,,,0.00,meteohub,2013-04-28 05:42:00,
2013-04-28 00:47:00,71.8,68.7,30.03,South,169,2.0,5.0,90,0.00,,,0.00,meteohub,2013-04-28 05:47:00,
2013-04-28 00:52:00,71.8,68.7,30.03,SSE,153,1.0,7.0,90,0.00,,,0.00,meteohub,2013-04-28 05:52:00,
2013-04-28 00:57:00,71.4,68.4,30.03,SSE,153,2.0,7.0,90,0.00,,,0.00,meteohub,2013-04-28 05:57:00,
2013-04-28 01:02:00,71.2,68.5,30.03,SSE,153,3.0,7.0,91,0.00,,,0.00,meteohub,2013-04-28 06:02:00,
2013-04-28 01:07:00,71.2,68.5,30.04,SSE,153,0.0,4.0,91,0.00,,,0.00,meteohub,2013-04-28 06:07:00,
2013-04-28 01:12:00,71.2,68.5,30.04,SSW,196,1.0,4.0,91,0.00,,,0.00,meteohub,2013-04-28 06:12:00,
2013-04-28 01:17:00,71.2,68.7,30.04,SSW,194,2.0,5.0,92,0.00,,,0.00,meteohub,2013-04-28 06:17:00,
2013-04-28 01:22:00,71.4,68.9,30.04,South,186,1.0,5.0,92,0.00,,,0.00,meteohub,2013-04-28 06:22:00,
2013-04-28 01:27:00,71.4,68.9,30.04,South,186,0.0,5.0,92,0.00,,,0.00,meteohub,2013-04-28 06:27:00,
2013-04-28 01:32:00,71.4,68.9,30.04,South,186,1.0,5.0,92,0.00,,,0.00,meteohub,2013-04-28 06:32:00,
2013-04-28 01:37:00,71.4,68.9,30.03,SSE,165,4.0,6.0,92,0.00,,,0.00,meteohub,2013-04-28 06:37:00,
2013-04-28 01:42:00,71.4,68.9,30.03,SSE,165,2.0,6.0,92,0.00,,,0.00,meteohub,2013-04-28 06:42:00,
2013-04-28 01:47:00,71.4,68.9,30.02,SSE,165,2.0,6.0,92,0.00,,,0.00,meteohub,2013-04-28 06:47:00,
2013-04-28 01:52:00,71.4,69.3,30.02,SSE,165,2.0,5.0,93,0.00,,,0.00,meteohub,2013-04-28 06:52:00,
2013-04-28 01:57:00,71.2,69.1,30.02,SSE,163,5.0,6.0,93,0.00,,,0.00,meteohub,2013-04-28 06:57:00,
2013-04-28 02:02:00,71.2,69.1,30.02,SSE,161,5.0,7.0,93,0.00,,,0.00,meteohub,2013-04-28 07:02:00,
2013-04-28 02:07:00,71.1,68.5,30.01,South,173,4.0,7.0,92,0.00,,,0.00,meteohub,2013-04-28 07:07:00,
2013-04-28 02:12:00,70.7,68.5,30.01,South,173,1.0,7.0,93,0.00,,,0.00,meteohub,2013-04-28 07:12:00,
2013-04-28 02:17:00,70.5,68.4,30.00,SSE,150,4.0,7.0,93,0.00,,,0.00,meteohub,2013-04-28 07:17:00,
2013-04-28 02:22:00,70.5,68.4,30.01,SSE,150,2.0,6.0,93,0.00,,,0.00,meteohub,2013-04-28 07:22:00,
2013-04-28 02:27:00,70.5,68.7,30.00,SE,130,3.0,6.0,94,0.00,,,0.00,meteohub,2013-04-28 07:27:00,
2013-04-28 02:32:00,70.5,68.7,30.00,SSE,147,5.0,6.0,94,0.00,,,0.00,meteohub,2013-04-28 07:32:00,
2013-04-28 02:37:00,70.9,69.1,30.00,South,174,4.0,8.0,94,0.00,,,0.00,meteohub,2013-04-28 07:37:00,
2013-04-28 02:42:00,70.9,69.4,30.00,SSE,153,5.0,8.0,95,0.00,,,0.00,meteohub,2013-04-28 07:42:00,
2013-04-28 02:47:00,70.9,69.4,30.00,SSE,148,3.0,8.0,95,0.00,,,0.00,meteohub,2013-04-28 07:47:00,
2013-04-28 02:52:00,70.9,69.4,30.00,SSE,155,7.0,8.0,95,0.00,,,0.00,meteohub,2013-04-28 07:52:00,
2013-04-28 02:57:00,71.1,69.6,29.99,SSE,149,5.0,8.0,95,0.00,,,0.00,meteohub,2013-04-28 07:57:00,
2013-04-28 03:02:00,71.1,69.6,29.99,SSE,150,6.0,9.0,95,0.00,,,0.00,meteohub,2013-04-28 08:02:00,
2013-04-28 03:07:00,71.1,69.6,29.99,SSE,155,3.0,9.0,95,0.00,,,0.00,meteohub,2013-04-28 08:07:00,
2013-04-28 03:12:00,71.1,69.6,29.99,South,174,3.0,9.0,95,0.00,,,0.00,meteohub,2013-04-28 08:12:00,
2013-04-28 03:17:00,71.1,69.6,29.99,SSE,147,4.0,7.0,95,0.00,,,0.00,meteohub,2013-04-28 08:17:00,
2013-04-28 03:22:00,71.1,69.6,29.99,SSE,165,6.0,8.0,95,0.00,,,0.00,meteohub,2013-04-28 08:22:00,
2013-04-28 03:27:00,71.1,69.6,29.98,SE,145,5.0,8.0,95,0.00,,,0.00,meteohub,2013-04-28 08:27:00,
2013-04-28 03:32:00,71.1,69.6,29.98,SSE,156,4.0,8.0,95,0.00,,,0.00,meteohub,2013-04-28 08:32:00,
2013-04-28 03:37:00,71.1,69.6,29.98,SE,143,4.0,8.0,95,0.00,,,0.00,meteohub,2013-04-28 08:37:00,
2013-04-28 03:42:00,71.1,69.6,29.98,SE,144,4.0,8.0,95,0.00,,,0.00,meteohub,2013-04-28 08:42:00,
2013-04-28 03:47:00,71.1,69.6,29.98,SSE,163,5.0,8.0,95,0.00,,,0.00,meteohub,2013-04-28 08:47:00,
2013-04-28 03:52:00,71.1,69.6,29.98,SSE,161,5.0,8.0,95,0.00,,,0.00,meteohub,2013-04-28 08:52:00,
2013-04-28 03:57:00,71.1,69.6,29.98,South,171,2.0,8.0,95,0.00,,,0.00,meteohub,2013-04-28 08:57:00,
2013-04-28 04:02:00,70.9,69.4,29.98,SE,132,6.0,9.0,95,0.00,,,0.00,meteohub,2013-04-28 09:02:00,
2013-04-28 04:07:00,71.1,69.6,29.98,ESE,121,5.0,9.0,95,0.00,,,0.00,meteohub,2013-04-28 09:07:00,
2013-04-28 04:12:00,71.1,69.6,29.98,SE,142,5.0,8.0,95,0.00,,,0.00,meteohub,2013-04-28 09:12:00,
2013-04-28 04:17:00,71.2,69.8,29.98,SSE,159,4.0,9.0,95,0.00,,,0.00,meteohub,2013-04-28 09:17:00,
2013-04-28 04:22:00,71.2,69.8,29.97,SSE,155,3.0,9.0,95,0.00,,,0.00,meteohub,2013-04-28 09:22:00,
2013-04-28 04:27:00,71.2,69.8,29.97,SSE,161,4.0,9.0,95,0.00,,,0.00,meteohub,2013-04-28 09:27:00,
2013-04-28 04:32:00,71.2,69.8,29.98,SSE,159,3.0,9.0,95,0.00,,,0.00,meteohub,2013-04-28 09:32:00,
2013-04-28 04:37:00,71.1,69.6,29.98,SSE,153,7.0,9.0,95,0.00,,,0.00,meteohub,2013-04-28 09:37:00,
2013-04-28 04:42:00,71.1,69.6,29.98,South,173,2.0,9.0,95,0.00,,,0.00,meteohub,2013-04-28 09:42:00,
2013-04-28 04:47:00,71.1,69.6,29.98,South,173,1.0,7.0,95,0.00,,,0.00,meteohub,2013-04-28 09:47:00,
2013-04-28 04:52:00,70.9,69.4,29.98,South,173,0.0,7.0,95,0.00,,,0.00,meteohub,2013-04-28 09:52:00,
2013-04-28 04:57:00,70.9,69.4,29.99,South,173,1.0,4.0,95,0.00,,,0.00,meteohub,2013-04-28 09:57:00,
2013-04-28 05:02:00,70.9,69.4,29.99,South,173,0.0,4.0,95,0.00,,,0.00,meteohub,2013-04-28 10:02:00,
2013-04-28 05:07:00,70.9,69.4,29.99,South,173,0.0,3.0,95,0.00,,,0.00,meteohub,2013-04-28 10:07:00,
2013-04-28 05:12:00,70.9,69.4,29.99,South,173,0.0,3.0,95,0.00,,,0.00,meteohub,2013-04-28 10:12:00,
2013-04-28 05:17:00,70.9,69.4,29.99,South,173,0.0,1.0,95,0.00,,,0.00,meteohub,2013-04-28 10:17:00,
2013-04-28 05:22:00,70.9,69.4,29.99,South,173,0.0,1.0,95,0.00,,,0.00,meteohub,2013-04-28 10:22:00,
2013-04-28 05:27:00,70.9,69.4,29.99,South,173,1.0,1.0,95,0.00,,,0.00,meteohub,2013-04-28 10:27:00,
2013-04-28 05:32:00,71.1,69.6,30.00,South,173,1.0,1.0,95,0.00,,,0.00,meteohub,2013-04-28 10:32:00,
2013-04-28 05:36:00,71.1,69.6,30.00,South,173,0.0,2.0,95,0.00,,,0.00,meteohub,2013-04-28 10:36:00,
2013-04-28 05:42:00,71.1,69.6,30.00,South,173,0.0,2.0,95,0.00,,,0.00,meteohub,2013-04-28 10:42:00,
2013-04-28 05:47:00,71.1,69.6,30.00,South,173,0.0,2.0,95,0.00,,,0.00,meteohub,2013-04-28 10:47:00,
2013-04-28 05:52:00,71.1,69.6,30.00,South,173,0.0,3.0,95,0.00,,,0.00,meteohub,2013-04-28 10:52:00,
2013-04-28 05:57:00,71.1,69.6,29.99,South,173,0.0,3.0,95,0.00,,,0.00,meteohub,2013-04-28 10:57:00,
2013-04-28 06:02:00,71.1,69.6,29.99,South,173,0.0,1.0,95,0.00,,,0.00,meteohub,2013-04-28 11:02:00,
2013-04-28 06:07:00,71.1,69.6,30.00,South,173,0.0,1.0,95,0.00,,,0.00,meteohub,2013-04-28 11:07:00,
2013-04-28 06:12:00,71.1,69.6,30.00,South,173,0.0,0.0,95,0.00,,,0.00,meteohub,2013-04-28 11:12:00,
2013-04-28 06:17:00,71.1,69.6,30.00,South,174,3.0,4.0,95,0.00,,,0.00,meteohub,2013-04-28 11:17:00,
2013-04-28 06:22:00,71.2,69.8,30.00,South,174,0.0,4.0,95,0.00,,,0.00,meteohub,2013-04-28 11:22:00,
2013-04-28 06:26:00,71.2,69.8,30.00,SW,225,5.0,5.0,95,0.00,,,0.00,meteohub,2013-04-28 11:26:00,
2013-04-28 06:32:00,71.2,69.8,30.00,SW,222,0.0,6.0,95,0.00,,,0.00,meteohub,2013-04-28 11:32:00,
2013-04-28 06:37:00,71.2,69.8,30.00,SW,222,0.0,6.0,95,0.00,,,0.00,meteohub,2013-04-28 11:37:00,
2013-04-28 06:42:00,71.2,69.8,30.00,SW,221,2.0,6.0,95,0.00,,,0.00,meteohub,2013-04-28 11:42:00,
2013-04-28 06:47:00,71.2,69.8,30.00,SW,221,0.0,5.0,95,0.00,,,0.00,meteohub,2013-04-28 11:47:00,
2013-04-28 06:52:00,71.2,69.8,30.00,SW,221,0.0,5.0,95,0.00,,,0.00,meteohub,2013-04-28 11:52:00,
2013-04-28 06:57:00,71.2,69.8,30.01,SW,221,0.0,4.0,95,0.00,,,0.00,meteohub,2013-04-28 11:57:00,
2013-04-28 07:02:00,71.1,69.6,30.01,SW,221,0.0,2.0,95,0.00,,,0.00,meteohub,2013-04-28 12:02:00,
2013-04-28 07:07:00,71.1,69.6,30.01,SW,221,2.0,4.0,95,0.00,,,0.00,meteohub,2013-04-28 12:07:00,
2013-04-28 07:12:00,71.2,69.8,30.01,SW,221,2.0,4.0,95,0.00,,,0.00,meteohub,2013-04-28 12:12:00,
2013-04-28 07:17:00,71.2,69.8,30.01,SSW,202,0.0,5.0,95,0.00,,,0.00,meteohub,2013-04-28 12:17:00,
2013-04-28 07:22:00,71.2,69.8,30.01,SW,219,1.0,6.0,95,0.00,,,0.00,meteohub,2013-04-28 12:22:00,
2013-04-28 07:27:00,71.2,69.8,30.01,SW,219,0.0,6.0,95,0.00,,,0.00,meteohub,2013-04-28 12:27:00,
2013-04-28 07:32:00,71.2,69.8,30.01,SW,219,0.0,6.0,95,0.00,,,0.00,meteohub,2013-04-28 12:32:00,
2013-04-28 07:37:00,71.2,69.8,30.01,SW,219,0.0,4.0,95,0.00,,,0.00,meteohub,2013-04-28 12:37:00,
2013-04-28 07:42:00,71.2,69.8,30.01,SW,219,0.0,3.0,95,0.00,,,0.00,meteohub,2013-04-28 12:42:00,
2013-04-28 07:47:00,71.2,69.8,30.01,SW,219,0.0,2.0,95,0.00,,,0.00,meteohub,2013-04-28 12:47:00,
2013-04-28 07:52:00,71.4,70.0,30.01,SW,219,0.0,1.0,95,0.00,,,0.00,meteohub,2013-04-28 12:52:00,
2013-04-28 07:57:00,71.4,70.0,30.01,SW,219,0.0,0.0,95,0.00,,,0.00,meteohub,2013-04-28 12:57:00,
2013-04-28 08:02:00,71.4,70.0,30.01,SW,219,0.0,1.0,95,0.00,,,0.00,meteohub,2013-04-28 13:02:00,
2013-04-28 08:07:00,71.4,70.0,30.01,SW,219,0.0,2.0,95,0.00,,,0.00,meteohub,2013-04-28 13:07:00,
2013-04-28 08:12:00,71.2,69.8,30.01,SW,219,0.0,2.0,95,0.00,,,0.00,meteohub,2013-04-28 13:12:00,
2013-04-28 08:17:00,71.2,69.8,30.01,ESE,121,1.0,3.0,95,0.00,,,0.00,meteohub,2013-04-28 13:17:00,
2013-04-28 08:22:00,71.1,69.6,30.01,SE,143,5.0,5.0,95,0.00,,,0.00,meteohub,2013-04-28 13:22:00,
2013-04-28 08:27:00,71.1,69.6,30.01,ESE,121,2.0,6.0,95,0.00,,,0.00,meteohub,2013-04-28 13:27:00,
2013-04-28 08:32:00,71.1,69.6,30.01,ESE,121,0.0,6.0,95,0.00,,,0.00,meteohub,2013-04-28 13:32:00,
2013-04-28 08:37:00,71.1,69.8,30.02,ESE,121,1.0,6.0,96,0.00,,,0.00,meteohub,2013-04-28 13:37:00,
2013-04-28 08:42:00,71.2,69.8,30.02,ESE,121,0.0,3.0,95,0.00,,,0.00,meteohub,2013-04-28 13:42:00,
2013-04-28 08:47:00,71.4,70.0,30.02,West,273,2.0,2.0,95,0.00,,,0.00,meteohub,2013-04-28 13:47:00,
2013-04-28 08:52:00,71.6,70.2,30.01,West,273,1.0,3.0,95,0.00,,,0.00,meteohub,2013-04-28 13:52:00,
2013-04-28 08:57:00,71.8,70.3,30.01,West,265,4.0,5.0,95,0.00,,,0.00,meteohub,2013-04-28 13:57:00,
2013-04-28 09:02:00,71.8,70.3,30.01,WNW,296,5.0,6.0,95,0.00,,,0.00,meteohub,2013-04-28 14:02:00,
2013-04-28 09:07:00,72.0,70.2,30.01,West,280,4.0,6.0,94,0.00,,,0.00,meteohub,2013-04-28 14:07:00,
2013-04-28 09:12:00,72.0,70.2,30.01,WNW,293,4.0,6.0,94,0.00,,,0.00,meteohub,2013-04-28 14:12:00,
2013-04-28 09:17:00,72.0,69.8,30.01,WNW,296,4.0,9.0,93,0.00,,,0.00,meteohub,2013-04-28 14:17:00,
2013-04-28 09:22:00,72.1,69.6,30.01,WNW,292,5.0,11.0,92,0.00,,,0.00,meteohub,2013-04-28 14:22:00,
2013-04-28 09:27:00,72.1,69.4,30.00,WNW,286,3.0,11.0,91,0.00,,,0.00,meteohub,2013-04-28 14:27:00,
2013-04-28 09:32:00,72.3,69.6,30.00,WNW,286,4.0,9.0,91,0.00,,,0.00,meteohub,2013-04-28 14:32:00,
2013-04-28 09:37:00,72.5,69.8,30.01,WSW,244,7.0,9.0,91,0.00,,,0.00,meteohub,2013-04-28 14:37:00,
2013-04-28 09:42:00,72.9,70.2,30.01,South,185,4.0,9.0,91,0.00,,,0.00,meteohub,2013-04-28 14:42:00,
2013-04-28 09:47:00,72.9,69.4,30.01,SSW,197,0.0,9.0,89,0.00,,,0.00,meteohub,2013-04-28 14:47:00,
2013-04-28 09:52:00,72.9,69.4,30.01,SSW,198,4.0,9.0,89,0.00,,,0.00,meteohub,2013-04-28 14:52:00,
2013-04-28 09:57:00,72.9,69.4,30.01,South,188,1.0,7.0,89,0.00,,,0.00,meteohub,2013-04-28 14:57:00,
2013-04-28 10:02:00,72.9,69.4,30.01,SSW,197,1.0,7.0,89,0.00,,,0.00,meteohub,2013-04-28 15:02:00,
2013-04-28 10:07:00,72.9,69.4,30.01,South,171,5.0,7.0,89,0.00,,,0.00,meteohub,2013-04-28 15:07:00,
2013-04-28 10:12:00,72.9,69.4,30.01,South,173,3.0,7.0,89,0.00,,,0.00,meteohub,2013-04-28 15:12:00,
2013-04-28 10:17:00,72.9,69.1,30.01,SSE,153,1.0,7.0,88,0.00,,,0.00,meteohub,2013-04-28 15:17:00,
2013-04-28 10:22:00,72.9,69.1,30.01,SSW,202,0.0,9.0,88,0.00,,,0.00,meteohub,2013-04-28 15:22:00,
2013-04-28 10:27:00,73.0,68.5,30.01,SSW,209,5.0,9.0,86,0.00,,,0.00,meteohub,2013-04-28 15:27:00,
2013-04-28 10:32:00,73.0,68.2,30.01,SW,215,0.0,9.0,85,0.00,,,0.00,meteohub,2013-04-28 15:32:00,
2013-04-28 10:37:00,73.0,68.0,30.00,SSW,205,4.0,7.0,84,0.00,,,0.00,meteohub,2013-04-28 15:37:00,
2013-04-28 10:42:00,73.0,68.2,30.00,SW,233,2.0,7.0,85,0.00,,,0.00,meteohub,2013-04-28 15:42:00,
2013-04-28 10:47:00,73.0,68.5,30.00,SW,233,3.0,7.0,86,0.00,,,0.00,meteohub,2013-04-28 15:47:00,
2013-04-28 10:52:00,73.2,69.1,30.00,SW,225,1.0,7.0,87,0.00,,,0.00,meteohub,2013-04-28 15:52:00,
2013-04-28 10:57:00,73.2,68.7,30.00,SW,225,0.0,6.0,86,0.00,,,0.00,meteohub,2013-04-28 15:57:00,
2013-04-28 11:02:00,73.4,68.9,30.00,SW,225,0.0,6.0,86,0.00,,,0.00,meteohub,2013-04-28 16:02:00,
2013-04-28 11:07:00,73.6,69.1,30.00,SW,225,0.0,3.0,86,0.00,,,0.00,meteohub,2013-04-28 16:07:00,
2013-04-28 11:12:00,73.8,68.9,30.01,SW,225,1.0,3.0,85,0.00,,,0.00,meteohub,2013-04-28 16:12:00,
2013-04-28 11:17:00,73.9,68.7,30.00,SW,225,1.0,2.0,84,0.00,,,0.00,meteohub,2013-04-28 16:17:00,
2013-04-28 11:22:00,73.9,68.7,30.01,SW,225,0.0,3.0,84,0.00,,,0.00,meteohub,2013-04-28 16:22:00,
2013-04-28 11:27:00,74.5,68.9,30.01,SW,225,2.0,3.0,83,0.00,,,0.00,meteohub,2013-04-28 16:27:00,
2013-04-28 11:32:00,74.7,68.7,30.00,SW,225,3.0,4.0,82,0.00,,,0.00,meteohub,2013-04-28 16:32:00,
2013-04-28 11:37:00,74.8,67.5,29.99,SSW,211,3.0,4.0,78,0.00,,,0.00,meteohub,2013-04-28 16:37:00,
2013-04-28 11:42:00,75.4,68.0,29.99,NNE,15,1.0,4.0,78,0.00,,,0.00,meteohub,2013-04-28 16:42:00,
2013-04-28 11:47:00,75.7,68.7,29.99,NE,34,5.0,8.0,79,0.00,,,0.00,meteohub,2013-04-28 16:47:00,
2013-04-28 11:52:00,75.7,69.4,29.99,ENE,78,1.0,8.0,81,0.00,,,0.00,meteohub,2013-04-28 16:52:00,
2013-04-28 11:57:00,75.7,69.1,29.99,ENE,66,3.0,8.0,80,0.00,,,0.00,meteohub,2013-04-28 16:57:00,
2013-04-28 12:02:00,75.7,68.0,29.99,NW,310,7.0,9.0,77,0.00,,,0.00,meteohub,2013-04-28 17:02:00,
2013-04-28 12:07:00,75.7,67.3,29.99,NW,317,5.0,10.0,75,0.00,,,0.00,meteohub,2013-04-28 17:07:00,
2013-04-28 12:12:00,75.7,67.3,29.99,NNW,329,4.0,10.0,75,0.00,,,0.00,meteohub,2013-04-28 17:12:00,
2013-04-28 12:17:00,75.9,67.1,29.98,NW,317,4.0,10.0,74,0.00,,,0.00,meteohub,2013-04-28 17:17:00,
2013-04-28 12:22:00,76.3,68.2,29.98,NW,318,2.0,9.0,76,0.00,,,0.00,meteohub,2013-04-28 17:22:00,
2013-04-28 12:27:00,76.5,67.6,29.98,NNW,335,4.0,9.0,74,0.00,,,0.00,meteohub,2013-04-28 17:27:00,
2013-04-28 12:32:00,76.6,66.2,29.98,NW,324,8.0,8.0,70,0.00,,,0.00,meteohub,2013-04-28 17:32:00,
2013-04-28 12:37:00,76.5,66.7,29.98,NW,321,8.0,9.0,72,0.00,,,0.00,meteohub,2013-04-28 17:37:00,
2013-04-28 12:42:00,76.3,66.6,29.98,NW,325,5.0,9.0,72,0.00,,,0.00,meteohub,2013-04-28 17:42:00,
2013-04-28 12:47:00,76.3,66.6,29.99,WNW,303,6.0,9.0,72,0.00,,,0.00,meteohub,2013-04-28 17:47:00,
2013-04-28 12:52:00,76.1,66.4,29.99,WNW,293,0.0,9.0,72,0.00,,,0.00,meteohub,2013-04-28 17:52:00,
2013-04-28 12:57:00,76.5,66.7,30.00,WNW,293,1.0,8.0,72,0.00,,,0.00,meteohub,2013-04-28 17:57:00,
2013-04-28 13:02:00,76.8,66.2,29.99,WNW,293,2.0,8.0,70,0.00,,,0.00,meteohub,2013-04-28 18:02:00,
2013-04-28 13:07:00,76.6,66.2,29.99,NW,319,5.0,5.0,70,0.00,,,0.00,meteohub,2013-04-28 18:07:00,
2013-04-28 13:12:00,76.6,66.6,29.99,NW,307,6.0,7.0,71,0.00,,,0.00,meteohub,2013-04-28 18:12:00,
2013-04-28 13:17:00,76.3,66.2,29.99,NNW,331,6.0,7.0,71,0.00,,,0.00,meteohub,2013-04-28 18:17:00,
2013-04-28 13:22:00,75.9,66.2,29.99,NW,320,4.0,9.0,72,0.00,,,0.00,meteohub,2013-04-28 18:22:00,
2013-04-28 13:27:00,75.9,66.6,29.99,NW,324,7.0,9.0,73,0.00,,,0.00,meteohub,2013-04-28 18:27:00,
2013-04-28 13:32:00,75.9,66.6,29.98,NW,319,5.0,9.0,73,0.00,,,0.00,meteohub,2013-04-28 18:32:00,
2013-04-28 13:37:00,75.6,66.7,29.98,NW,321,8.0,10.0,74,0.00,,,0.00,meteohub,2013-04-28 18:37:00,
2013-04-28 13:42:00,75.4,66.9,29.98,NW,322,9.0,11.0,75,0.00,,,0.00,meteohub,2013-04-28 18:42:00,
2013-04-28 13:47:00,75.0,66.2,29.98,NW,319,8.0,12.0,74,0.00,,,0.00,meteohub,2013-04-28 18:47:00,
2013-04-28 13:52:00,74.8,66.4,29.98,NW,323,6.0,13.0,75,0.00,,,0.00,meteohub,2013-04-28 18:52:00,
2013-04-28 13:57:00,75.0,66.2,29.97,NNW,336,8.0,13.0,74,0.00,,,0.00,meteohub,2013-04-28 18:57:00,
2013-04-28 14:02:00,75.0,66.2,29.97,NW,323,6.0,11.0,74,0.00,,,0.00,meteohub,2013-04-28 19:02:00,
2013-04-28 14:07:00,75.0,65.8,29.97,NW,323,7.0,10.0,73,0.00,,,0.00,meteohub,2013-04-28 19:07:00,
2013-04-28 14:12:00,74.8,65.7,29.96,NNW,331,5.0,11.0,73,0.00,,,0.00,meteohub,2013-04-28 19:12:00,
2013-04-28 14:17:00,74.8,66.0,29.96,NW,321,10.0,11.0,74,0.00,,,0.00,meteohub,2013-04-28 19:17:00,
2013-04-28 14:22:00,74.8,66.4,29.96,NW,319,8.0,11.0,75,0.00,,,0.00,meteohub,2013-04-28 19:22:00,
2013-04-28 14:27:00,74.8,66.7,29.96,NW,325,6.0,11.0,76,0.00,,,0.00,meteohub,2013-04-28 19:27:00,
2013-04-28 14:32:00,74.7,67.3,29.96,NNW,329,9.0,11.0,78,0.00,,,0.00,meteohub,2013-04-28 19:32:00,
2013-04-28 14:37:00,74.7,67.6,29.96,NW,326,1.0,11.0,79,0.00,,,0.00,meteohub,2013-04-28 19:37:00,
2013-04-28 14:42:00,75.0,67.3,29.96,NW,326,4.0,10.0,77,0.00,,,0.00,meteohub,2013-04-28 19:42:00,
2013-04-28 14:47:00,75.2,67.1,29.96,NNW,337,2.0,10.0,76,0.00,,,0.00,meteohub,2013-04-28 19:47:00,
2013-04-28 14:52:00,75.4,67.3,29.96,NNW,337,1.0,7.0,76,0.00,,,0.00,meteohub,2013-04-28 19:52:00,
2013-04-28 14:57:00,75.4,66.9,29.96,NNW,337,0.0,6.0,75,0.00,,,0.00,meteohub,2013-04-28 19:57:00,
2013-04-28 15:02:00,75.7,67.6,29.95,NNW,337,2.0,6.0,76,0.00,,,0.00,meteohub,2013-04-28 20:02:00,
2013-04-28 15:07:00,75.6,67.1,29.95,NE,53,4.0,5.0,75,0.00,,,0.00,meteohub,2013-04-28 20:07:00,
2013-04-28 15:12:00,75.6,67.1,29.95,NE,50,2.0,8.0,75,0.00,,,0.00,meteohub,2013-04-28 20:12:00,
2013-04-28 15:17:00,75.7,67.3,29.95,NE,50,2.0,8.0,75,0.00,,,0.00,meteohub,2013-04-28 20:17:00,
2013-04-28 15:23:00,75.4,66.2,29.96,ESE,111,5.0,8.0,73,0.00,,,0.00,meteohub,2013-04-28 20:23:00,
2013-04-28 15:28:00,74.5,66.0,29.96,SE,128,6.0,11.0,75,0.00,,,0.00,meteohub,2013-04-28 20:28:00,
2013-04-28 15:33:00,73.8,65.3,29.96,SE,134,4.0,11.0,75,0.00,,,0.00,meteohub,2013-04-28 20:33:00,
2013-04-28 15:38:00,72.5,63.7,29.96,SE,138,5.0,11.0,74,0.00,,,0.00,meteohub,2013-04-28 20:38:00,
2013-04-28 15:43:00,71.4,63.1,29.96,SSE,149,4.0,11.0,75,0.00,,,0.00,meteohub,2013-04-28 20:43:00,
2013-04-28 15:48:00,71.1,63.9,29.96,SE,143,1.0,11.0,78,0.00,,,0.00,meteohub,2013-04-28 20:48:00,
2013-04-28 15:53:00,70.9,63.3,29.95,SE,144,7.0,11.0,77,0.00,,,0.00,meteohub,2013-04-28 20:53:00,
2013-04-28 15:58:00,70.5,63.3,29.95,ESE,119,7.0,10.0,78,0.00,,,0.00,meteohub,2013-04-28 20:58:00,
2013-04-28 16:03:00,70.3,63.9,29.94,ESE,111,3.0,8.0,80,0.00,,,0.00,meteohub,2013-04-28 21:03:00,
2013-04-28 16:08:00,70.2,63.7,29.94,ESE,107,1.0,8.0,80,0.00,,,0.00,meteohub,2013-04-28 21:08:00,
2013-04-28 16:13:00,70.2,63.7,29.94,East,101,2.0,8.0,80,0.00,,,0.00,meteohub,2013-04-28 21:13:00,
2013-04-28 16:18:00,70.3,64.2,29.93,ESE,108,2.0,8.0,81,0.00,,,0.00,meteohub,2013-04-28 21:18:00,
2013-04-28 16:23:00,70.5,64.4,29.93,East,101,0.0,8.0,81,0.00,,,0.00,meteohub,2013-04-28 21:23:00,
2013-04-28 16:28:00,71.1,64.6,29.93,SE,126,1.0,6.0,80,0.00,,,0.00,meteohub,2013-04-28 21:28:00,
2013-04-28 16:33:00,71.6,65.1,29.93,ESE,117,5.0,5.0,80,0.00,,,0.00,meteohub,2013-04-28 21:33:00,
2013-04-28 16:38:00,71.8,64.9,29.93,SE,128,3.0,5.0,79,0.00,,,0.00,meteohub,2013-04-28 21:38:00,
2013-04-28 16:43:00,71.6,64.8,29.94,ESE,102,2.0,7.0,79,0.00,,,0.00,meteohub,2013-04-28 21:43:00,
2013-04-28 16:48:00,71.4,65.3,29.94,ESE,119,3.0,7.0,81,0.00,,,0.00,meteohub,2013-04-28 21:48:00,
2013-04-28 16:53:00,71.4,65.3,29.93,ESE,107,3.0,7.0,81,0.00,,,0.00,meteohub,2013-04-28 21:53:00,
2013-04-28 16:58:00,71.4,65.3,29.94,SE,131,2.0,7.0,81,0.00,,,0.00,meteohub,2013-04-28 21:58:00,
2013-04-28 17:03:00,71.6,65.5,29.94,SE,143,5.0,5.0,81,0.00,,,0.00,meteohub,2013-04-28 22:03:00,
2013-04-28 17:08:00,71.8,65.7,29.94,SE,132,4.0,6.0,81,0.00,,,0.00,meteohub,2013-04-28 22:08:00,
2013-04-28 17:13:00,71.6,65.5,29.94,ESE,123,5.0,7.0,81,0.00,,,0.00,meteohub,2013-04-28 22:13:00,
2013-04-28 17:18:00,71.4,65.3,29.94,ESE,120,5.0,7.0,81,0.00,,,0.00,meteohub,2013-04-28 22:18:00,
2013-04-28 17:23:00,71.2,65.1,29.94,ESE,119,5.0,9.0,81,0.00,,,0.00,meteohub,2013-04-28 22:23:00,
2013-04-28 17:28:00,71.2,64.8,29.94,SE,125,2.0,9.0,80,0.00,,,0.00,meteohub,2013-04-28 22:28:00,
2013-04-28 17:33:00,71.2,64.8,29.94,ESE,109,4.0,9.0,80,0.00,,,0.00,meteohub,2013-04-28 22:33:00,
2013-04-28 17:38:00,71.2,65.1,29.94,ESE,121,2.0,8.0,81,0.00,,,0.00,meteohub,2013-04-28 22:38:00,
2013-04-28 17:43:00,71.2,65.1,29.94,SSE,156,3.0,7.0,81,0.00,,,0.00,meteohub,2013-04-28 22:43:00,
2013-04-28 17:48:00,71.1,64.9,29.94,SE,138,3.0,7.0,81,0.00,,,0.00,meteohub,2013-04-28 22:48:00,
2013-04-28 17:53:00,70.9,65.1,29.94,SE,134,8.0,8.0,82,0.00,,,0.00,meteohub,2013-04-28 22:53:00,
2013-04-28 17:58:00,70.9,65.5,29.94,SSE,154,0.0,8.0,83,0.00,,,0.00,meteohub,2013-04-28 22:58:00,
2013-04-28 18:03:00,70.7,65.7,29.93,SSE,159,4.0,8.0,84,0.00,,,0.00,meteohub,2013-04-28 23:03:00,
2013-04-28 18:08:00,70.5,65.8,29.93,SSE,151,5.0,8.0,85,0.00,,,0.00,meteohub,2013-04-28 23:08:00,
2013-04-28 18:13:00,70.3,66.0,29.93,South,184,3.0,8.0,86,0.00,,,0.00,meteohub,2013-04-28 23:13:00,
2013-04-28 18:18:00,70.2,65.8,29.93,SSE,166,3.0,8.0,86,0.00,,,0.00,meteohub,2013-04-28 23:18:00,
2013-04-28 18:23:00,70.0,65.7,29.93,SSE,161,2.0,8.0,86,0.00,,,0.00,meteohub,2013-04-28 23:23:00,
2013-04-28 18:28:00,69.8,65.5,29.92,SSE,153,2.0,8.0,86,0.00,,,0.00,meteohub,2013-04-28 23:28:00,
2013-04-28 18:34:00,69.6,65.7,29.92,SSE,153,2.0,7.0,87,0.00,,,0.00,meteohub,2013-04-28 23:34:00,
2013-04-28 18:39:00,69.4,65.5,29.91,SSE,153,1.0,7.0,87,0.00,,,0.00,meteohub,2013-04-28 23:39:00,
2013-04-28 18:44:00,69.3,65.5,29.91,SSE,153,2.0,6.0,88,0.00,,,0.00,meteohub,2013-04-28 23:44:00,
2013-04-28 18:49:00,69.3,65.5,29.91,SSE,153,0.0,6.0,88,0.00,,,0.00,meteohub,2013-04-28 23:49:00,
2013-04-28 18:54:00,69.3,65.5,29.91,SSE,153,0.0,4.0,88,0.00,,,0.00,meteohub,2013-04-28 23:54:00,
2013-04-28 18:59:00,69.4,65.7,29.91,SSE,153,2.0,3.0,88,0.00,,,0.00,meteohub,2013-04-28 23:59:00,
2013-04-28 19:04:00,69.3,65.5,29.92,SSE,153,2.0,4.0,88,0.00,,,0.00,meteohub,2013-04-29 00:04:00,
2013-04-28 19:09:00,69.3,65.5,29.92,SSE,153,2.0,4.0,88,0.00,,,0.00,meteohub,2013-04-29 00:09:00,
2013-04-28 19:14:00,69.3,65.5,29.92,SSE,153,0.0,4.0,88,0.00,,,0.00,meteohub,2013-04-29 00:14:00,
2013-04-28 19:19:00,69.1,65.3,29.92,SSE,153,0.0,4.0,88,0.00,,,0.00,meteohub,2013-04-29 00:19:00,
2013-04-28 19:24:00,69.1,65.3,29.93,SSE,153,0.0,4.0,88,0.00,,,0.00,meteohub,2013-04-29 00:24:00,
2013-04-28 19:29:00,69.1,65.3,29.93,SSE,153,0.0,3.0,88,0.00,,,0.00,meteohub,2013-04-29 00:29:00,
2013-04-28 19:34:00,69.1,65.3,29.94,SSE,153,0.0,3.0,88,0.00,,,0.00,meteohub,2013-04-29 00:34:00,
2013-04-28 19:39:00,68.9,65.1,29.94,SSE,153,0.0,1.0,88,0.00,,,0.00,meteohub,2013-04-29 00:39:00,
2013-04-28 19:44:00,68.7,65.3,29.94,SSE,153,2.0,3.0,89,0.00,,,0.00,meteohub,2013-04-29 00:44:00,
2013-04-28 19:49:00,68.7,65.3,29.94,SSE,153,1.0,3.0,89,0.00,,,0.00,meteohub,2013-04-29 00:49:00,
2013-04-28 19:54:00,68.7,65.3,29.94,SSE,153,0.0,4.0,89,0.00,,,0.00,meteohub,2013-04-29 00:54:00,
2013-04-28 19:59:00,68.7,65.3,29.94,SSE,153,0.0,4.0,89,0.00,,,0.00,meteohub,2013-04-29 00:59:00,
2013-04-28 20:04:00,68.5,65.1,29.94,SSE,153,0.0,2.0,89,0.00,,,0.00,meteohub,2013-04-29 01:04:00,
2013-04-28 20:09:00,68.4,64.9,29.94,SE,128,0.0,3.0,89,0.00,,,0.00,meteohub,2013-04-29 01:09:00,
2013-04-28 20:14:00,68.2,64.8,29.94,ESE,123,4.0,4.0,89,0.00,,,0.00,meteohub,2013-04-29 01:14:00,
2013-04-28 20:19:00,67.8,64.4,29.95,ESE,119,3.0,4.0,89,0.00,,,0.00,meteohub,2013-04-29 01:19:00,
2013-04-28 20:24:00,67.6,64.6,29.95,ESE,118,4.0,5.0,90,0.00,,,0.00,meteohub,2013-04-29 01:24:00,
2013-04-28 20:29:00,67.5,64.4,29.96,SE,124,3.0,5.0,90,0.00,,,0.00,meteohub,2013-04-29 01:29:00,
2013-04-28 20:34:00,67.5,64.4,29.95,ESE,114,2.0,5.0,90,0.00,,,0.00,meteohub,2013-04-29 01:34:00,
2013-04-28 20:39:00,67.3,64.2,29.95,SE,129,0.0,7.0,90,0.00,,,0.00,meteohub,2013-04-29 01:39:00,
2013-04-28 20:44:00,67.3,64.2,29.95,SE,129,0.0,7.0,90,0.00,,,0.00,meteohub,2013-04-29 01:44:00,
2013-04-28 20:49:00,67.3,64.2,29.95,SE,129,0.0,7.0,90,0.00,,,0.00,meteohub,2013-04-29 01:49:00,
2013-04-28 20:54:00,67.1,64.0,29.95,SE,129,0.0,6.0,90,0.00,,,0.00,meteohub,2013-04-29 01:54:00,
2013-04-28 20:59:00,66.9,63.9,29.96,SE,129,2.0,3.0,90,0.00,,,0.00,meteohub,2013-04-29 01:59:00,
2013-04-28 21:04:00,66.9,63.9,29.96,SE,129,1.0,4.0,90,0.00,,,0.00,meteohub,2013-04-29 02:04:00,
2013-04-28 21:09:00,66.9,63.9,29.96,SE,129,0.0,4.0,90,0.00,,,0.00,meteohub,2013-04-29 02:09:00,
2013-04-28 21:14:00,66.7,63.7,29.96,SE,129,0.0,4.0,90,0.00,,,0.00,meteohub,2013-04-29 02:14:00,
2013-04-28 21:19:00,66.7,64.0,29.96,SE,129,0.0,4.0,91,0.00,,,0.00,meteohub,2013-04-29 02:19:00,
2013-04-28 21:24:00,66.7,64.0,29.96,SE,129,3.0,4.0,91,0.00,,,0.00,meteohub,2013-04-29 02:24:00,
2013-04-28 21:29:00,66.7,64.0,29.96,SE,129,2.0,4.0,91,0.00,,,0.00,meteohub,2013-04-29 02:29:00,
2013-04-28 21:34:00,66.6,63.9,29.96,SE,129,0.0,5.0,91,0.00,,,0.00,meteohub,2013-04-29 02:34:00,
2013-04-28 21:39:00,66.6,63.9,29.96,SE,129,3.0,5.0,91,0.00,,,0.00,meteohub,2013-04-29 02:39:00,
2013-04-28 21:44:00,66.6,64.2,29.96,SE,129,0.0,5.0,92,0.00,,,0.00,meteohub,2013-04-29 02:44:00,
2013-04-28 21:49:00,66.6,64.2,29.96,SE,129,0.0,3.0,92,0.00,,,0.00,meteohub,2013-04-29 02:49:00,
2013-04-28 21:54:00,66.6,64.2,29.97,East,82,1.0,3.0,92,0.00,,,0.00,meteohub,2013-04-29 02:54:00,
2013-04-28 21:59:00,66.7,64.4,29.97,East,85,1.0,3.0,92,0.00,,,0.00,meteohub,2013-04-29 02:59:00,
2013-04-28 22:04:00,66.7,64.4,29.97,ESE,102,1.0,8.0,92,0.00,,,0.00,meteohub,2013-04-29 03:04:00,
2013-04-28 22:10:00,66.7,64.4,29.97,East,100,5.0,8.0,92,0.00,,,0.00,meteohub,2013-04-29 03:10:00,
2013-04-28 22:15:00,66.7,64.4,29.97,ESE,119,2.0,8.0,92,0.00,,,0.00,meteohub,2013-04-29 03:15:00,
2013-04-28 22:20:00,66.6,64.2,29.97,ESE,119,1.0,6.0,92,0.00,,,0.00,meteohub,2013-04-29 03:20:00,
2013-04-28 22:25:00,66.4,64.0,29.98,ESE,115,3.0,6.0,92,0.00,,,0.00,meteohub,2013-04-29 03:25:00,
2013-04-28 22:30:00,66.4,64.0,29.98,ESE,111,4.0,5.0,92,0.00,,,0.00,meteohub,2013-04-29 03:30:00,
2013-04-28 22:35:00,66.2,63.5,29.98,ESE,113,5.0,7.0,91,0.00,,,0.00,meteohub,2013-04-29 03:35:00,
2013-04-28 22:40:00,66.0,63.3,29.98,ESE,122,1.0,7.0,91,0.00,,,0.00,meteohub,2013-04-29 03:40:00,
2013-04-28 22:45:00,66.0,63.3,29.98,SE,126,2.0,7.0,91,0.00,,,0.00,meteohub,2013-04-29 03:45:00,
2013-04-28 22:50:00,66.0,63.7,29.98,SE,128,3.0,7.0,92,0.00,,,0.00,meteohub,2013-04-29 03:50:00,
2013-04-28 22:55:00,65.8,63.5,29.98,SE,128,3.0,7.0,92,0.00,,,0.00,meteohub,2013-04-29 03:55:00,
2013-04-28 23:00:00,65.8,63.5,29.97,SE,128,2.0,5.0,92,0.00,,,0.00,meteohub,2013-04-29 04:00:00,
2013-04-28 23:01:00,65.8,63.5,29.97,SE,128,0.0,5.0,92,0.00,,,0.00,meteohub,2013-04-29 04:01:00,
2013-04-28 23:06:00,65.7,63.3,29.97,SE,128,2.0,5.0,92,0.00,,,0.00,meteohub,2013-04-29 04:06:00,
2013-04-28 23:11:00,65.5,63.3,29.97,SE,128,0.0,4.0,93,0.00,,,0.00,meteohub,2013-04-29 04:11:00,
2013-04-28 23:16:00,65.5,63.3,29.97,SE,128,0.0,4.0,93,0.00,,,0.00,meteohub,2013-04-29 04:16:00,
2013-04-28 23:21:00,65.3,63.1,29.97,SE,128,1.0,4.0,93,0.00,,,0.00,meteohub,2013-04-29 04:21:00,
2013-04-28 23:27:00,65.1,63.0,29.96,SE,128,0.0,3.0,93,0.00,,,0.00,meteohub,2013-04-29 04:27:00,
2013-04-28 23:32:00,65.1,63.0,29.97,SE,128,2.0,3.0,93,0.00,,,0.00,meteohub,2013-04-29 04:32:00,
2013-04-28 23:37:00,64.9,62.8,29.97,SE,128,1.0,4.0,93,0.00,,,0.00,meteohub,2013-04-29 04:37:00,
2013-04-28 23:42:00,64.9,63.1,29.97,SE,128,2.0,4.0,94,0.00,,,0.00,meteohub,2013-04-29 04:42:00,
2013-04-28 23:47:00,64.8,63.0,29.97,SE,128,0.0,4.0,94,0.00,,,0.00,meteohub,2013-04-29 04:47:00,
2013-04-28 23:52:00,64.8,63.0,29.97,SE,128,0.0,4.0,94,0.00,,,0.00,meteohub,2013-04-29 04:52:00,
2013-04-28 23:57:00,64.8,63.0,29.96,SE,128,2.0,3.0,94,0.00,,,0.00,meteohub,2013-04-29 04:57:00,